createdAt,value
2018-02-08T00:02:01.502Z,21.73
2018-02-08T00:04:29.805Z,24.55
2018-02-08T00:06:57.332Z,22.27
2018-02-08T00:09:24.873Z,22.58
2018-02-08T00:11:52.389Z,22.10
2018-02-08T00:14:19.932Z,26.42
2018-02-08T00:16:48.216Z,24.40
2018-02-08T00:19:16.518Z,23.90
2018-02-08T00:21:44.032Z,22.30
2018-02-08T00:24:11.645Z,24.17
2018-02-08T00:26:39.168Z,20.17
2018-02-08T00:29:07.465Z,22.70
2018-02-08T00:31:34.992Z,20.12
2018-02-08T00:34:02.533Z,20.77
2018-02-08T00:36:30.179Z,20.60
2018-02-08T00:38:57.697Z,20.27
2018-02-08T00:41:26.105Z,19.65
2018-02-08T00:43:53.660Z,20.42
2018-02-08T00:46:21.220Z,20.42
2018-02-08T00:48:48.788Z,18.35
2018-02-08T00:51:16.324Z,17.98
2018-02-08T00:53:43.905Z,19.40
2018-02-08T00:56:11.441Z,21.45
2018-02-08T00:58:39.740Z,18.50
2018-02-08T01:01:07.277Z,19.33
2018-02-08T01:03:35.568Z,17.02
2018-02-08T01:06:03.154Z,18.70
2018-02-08T01:08:30.682Z,22.45
2018-02-08T01:10:58.987Z,25.65
2018-02-08T01:13:26.525Z,21.98
2018-02-08T01:15:54.048Z,21.73
2018-02-08T01:18:21.667Z,23.33
2018-02-08T01:20:49.193Z,20.80
2018-02-08T01:23:17.608Z,22.52
2018-02-08T01:25:45.134Z,22.08
2018-02-08T01:28:13.443Z,24.23
2018-02-08T01:30:40.962Z,22.15
2018-02-08T01:33:09.281Z,20.75
2018-02-08T01:35:36.810Z,19.08
2018-02-08T01:38:05.122Z,19.15
2018-02-08T01:40:32.641Z,21.50
2018-02-08T01:43:00.948Z,21.60
2018-02-08T01:45:28.470Z,21.60
2018-02-08T01:47:56.009Z,21.15
2018-02-08T01:50:23.529Z,21.80
2018-02-08T01:52:51.073Z,22.10
2018-02-08T01:55:19.362Z,23.05
2018-02-08T01:57:46.946Z,19.70
2018-02-08T02:00:14.473Z,21.00
2018-02-08T02:02:42.884Z,16.48
2018-02-08T02:05:10.455Z,18.83
2018-02-08T02:07:38.002Z,19.77
2018-02-08T02:10:05.526Z,20.60
2018-02-08T02:12:33.869Z,18.17
2018-02-08T02:15:01.387Z,27.65
2018-02-08T02:17:28.969Z,21.85
2018-02-08T02:19:56.515Z,22.27
2018-02-08T02:22:24.089Z,23.35
2018-02-08T02:24:51.628Z,26.50
2018-02-08T02:27:19.149Z,18.40
2018-02-08T02:29:46.766Z,22.58
2018-02-08T02:32:14.291Z,21.77
2018-02-08T02:34:42.607Z,21.40
2018-02-08T02:37:10.134Z,22.73
2018-02-08T02:39:38.442Z,24.70
2018-02-08T02:42:05.966Z,21.75
2018-02-08T02:44:34.273Z,20.67
2018-02-08T02:47:01.814Z,26.05
2018-02-08T02:49:30.224Z,27.60
2018-02-08T02:51:57.743Z,23.45
2018-02-08T02:54:25.267Z,21.83
2018-02-08T02:56:52.800Z,27.00
2018-02-08T02:59:20.312Z,22.15
2018-02-08T03:01:47.850Z,22.55
2018-02-08T03:04:15.394Z,22.35
2018-02-08T03:06:43.053Z,23.58
2018-02-08T03:09:10.574Z,26.23
2018-02-08T03:11:38.882Z,23.98
2018-02-08T03:14:06.401Z,24.85
2018-02-08T03:16:33.941Z,23.20
2018-02-08T03:19:01.474Z,22.23
2018-02-08T03:21:29.013Z,21.58
2018-02-08T03:23:57.293Z,25.85
2018-02-08T03:26:24.872Z,23.73
2018-02-08T03:28:52.862Z,22.83
2018-02-08T03:31:20.418Z,26.77
2018-02-08T03:33:47.942Z,31.00
2018-02-08T03:36:16.231Z,27.33
2018-02-08T03:38:43.778Z,25.15
2018-02-08T03:41:12.063Z,21.85
2018-02-08T03:43:39.601Z,22.80
2018-02-08T03:46:07.124Z,24.20
2018-02-08T03:48:34.661Z,21.08
2018-02-08T03:51:02.179Z,22.67
2018-02-08T03:53:29.723Z,23.10
2018-02-08T03:55:57.242Z,25.50
2018-02-08T03:58:24.787Z,25.40
2018-02-08T04:00:52.314Z,22.37
2018-02-08T04:03:19.860Z,23.65
2018-02-08T04:05:47.381Z,23.65
2018-02-08T04:08:14.919Z,23.27
2018-02-08T04:10:43.212Z,21.65
2018-02-08T04:13:10.788Z,21.83
2018-02-08T04:15:38.310Z,22.52
2018-02-08T04:18:06.617Z,20.58
2018-02-08T04:20:34.139Z,25.52
2018-02-08T04:23:01.752Z,21.73
2018-02-08T04:25:29.305Z,25.23
2018-02-08T04:27:56.818Z,28.62
2018-02-08T04:30:25.869Z,26.52
2018-02-08T04:32:53.386Z,30.15
2018-02-08T04:35:20.926Z,26.65
2018-02-08T04:37:48.454Z,27.73
2018-02-08T04:40:27.901Z,29.50
2018-02-08T04:43:07.347Z,23.30
2018-02-08T04:45:46.757Z,22.73
2018-02-08T04:48:14.329Z,25.27
2018-02-08T04:50:41.868Z,25.48
2018-02-08T04:53:09.413Z,25.37
2018-02-08T04:55:37.741Z,22.65
2018-02-08T04:58:05.257Z,20.92
2018-02-08T05:00:33.570Z,20.27
2018-02-08T05:03:01.094Z,22.50
2018-02-08T05:05:28.633Z,22.35
2018-02-08T05:07:56.161Z,22.25
2018-02-08T05:10:23.705Z,27.48
2018-02-08T05:12:51.281Z,22.70
2018-02-08T05:15:18.822Z,23.05
2018-02-08T05:17:46.414Z,22.33
2018-02-08T05:20:13.965Z,22.90
2018-02-08T05:22:41.480Z,23.25
2018-02-08T05:25:09.789Z,25.60
2018-02-08T05:27:37.309Z,22.60
2018-02-08T05:30:04.925Z,22.13
2018-02-08T05:32:32.461Z,23.17
2018-02-08T05:35:00.770Z,24.70
2018-02-08T05:37:28.290Z,23.42
2018-02-08T05:39:56.590Z,25.85
2018-02-08T05:42:24.114Z,27.23
2018-02-08T05:44:51.648Z,27.85
2018-02-08T05:47:19.284Z,27.15
2018-02-08T05:49:46.805Z,25.45
2018-02-08T05:52:15.111Z,24.92
2018-02-08T05:54:42.646Z,26.40
2018-02-08T05:57:10.945Z,29.08
2018-02-08T05:59:38.469Z,25.85
2018-02-08T06:02:06.045Z,25.40
2018-02-08T06:04:33.550Z,26.42
2018-02-08T06:07:01.090Z,27.80
2018-02-08T06:09:28.624Z,26.98
2018-02-08T06:11:56.169Z,23.77
2018-02-08T06:14:23.789Z,27.77
2018-02-08T06:16:51.331Z,30.15
2018-02-08T06:19:18.856Z,28.73
2018-02-08T06:21:46.400Z,34.10
2018-02-08T06:24:13.927Z,30.77
2018-02-08T06:26:41.473Z,31.15
2018-02-08T06:29:09.758Z,29.12
2018-02-08T06:31:37.297Z,32.58
2018-02-08T06:34:05.585Z,28.85
2018-02-08T06:36:33.888Z,25.27
2018-02-08T06:39:01.413Z,25.67
2018-02-08T06:41:29.720Z,23.35
2018-02-08T06:43:57.241Z,22.15
2018-02-08T06:46:24.849Z,22.95
2018-02-08T06:48:52.408Z,20.40
2018-02-08T06:51:19.940Z,22.80
2018-02-08T06:53:48.249Z,23.25
2018-02-08T06:59:06.611Z,25.92
2018-02-08T07:01:34.165Z,24.10
2018-02-08T07:04:01.691Z,24.63
2018-02-08T07:06:29.977Z,23.62
2018-02-08T07:08:58.466Z,25.55
2018-02-08T07:11:26.757Z,27.37
2018-02-08T07:13:54.292Z,23.45
2018-02-08T07:16:22.590Z,26.00
2018-02-08T07:18:50.177Z,27.48
2018-02-08T07:21:17.702Z,28.33
2018-02-08T07:23:46.001Z,26.87
2018-02-08T07:26:13.521Z,31.77
2018-02-08T07:28:41.062Z,25.55
2018-02-08T07:31:08.585Z,30.23
2018-02-08T07:33:36.128Z,22.75
2018-02-08T07:36:04.417Z,27.73
2018-02-08T07:38:31.990Z,28.70
2018-02-08T07:40:59.507Z,30.45
2018-02-08T07:43:27.049Z,30.12
2018-02-08T07:45:54.563Z,30.08
2018-02-08T07:48:22.101Z,30.67
2018-02-08T07:50:51.380Z,30.95
2018-02-08T07:53:18.926Z,22.17
2018-02-08T07:55:47.644Z,27.08
2018-02-08T07:58:16.198Z,26.10
2018-02-08T08:00:43.814Z,25.05
2018-02-08T08:03:11.342Z,20.55
2018-02-08T08:05:39.653Z,19.85
2018-02-08T08:08:07.878Z,22.48
2018-02-08T08:10:36.757Z,24.30
2018-02-08T08:13:04.281Z,22.55
2018-02-08T08:15:31.837Z,24.00
2018-02-08T08:17:59.367Z,25.83
2018-02-08T08:20:26.908Z,28.77
2018-02-08T08:22:54.425Z,37.95
2018-02-08T08:25:21.973Z,43.47
2018-02-08T08:27:50.266Z,45.25
2018-02-08T08:30:17.801Z,42.58
2018-02-08T08:32:46.103Z,41.37
2018-02-08T08:35:13.689Z,42.20
2018-02-08T08:37:41.245Z,43.35
2018-02-08T08:40:08.805Z,43.13
2018-02-08T08:42:36.346Z,41.97
2018-02-08T08:45:03.874Z,39.08
2018-02-08T08:47:31.414Z,45.88
2018-02-08T08:49:58.937Z,47.28
2018-02-08T08:52:26.479Z,46.53
2018-02-08T08:54:54.770Z,53.72
2018-02-08T08:57:22.305Z,46.85
2018-02-08T08:59:50.589Z,42.75
2018-02-08T09:02:18.892Z,41.17
2018-02-08T09:04:46.415Z,37.35
2018-02-08T09:07:13.951Z,37.13
2018-02-08T09:09:41.471Z,35.22
2018-02-08T09:12:09.013Z,34.85
2018-02-08T09:14:37.317Z,35.90
2018-02-08T09:17:04.866Z,35.78
2018-02-08T09:19:32.393Z,40.03
2018-02-08T09:21:59.937Z,39.97
2018-02-08T09:24:27.461Z,41.70
2018-02-08T09:26:55.026Z,38.13
2018-02-08T09:29:22.570Z,37.57
2018-02-08T09:31:50.094Z,38.57
2018-02-08T09:34:17.706Z,36.37
2018-02-08T09:36:45.233Z,40.07
2018-02-08T09:39:13.553Z,39.10
2018-02-08T09:41:41.169Z,34.40
2018-02-08T09:44:08.680Z,33.23
2018-02-08T09:46:36.204Z,33.80
2018-02-08T09:49:04.510Z,32.97
2018-02-08T09:51:32.026Z,33.00
2018-02-08T09:53:59.561Z,36.60
2018-02-08T09:56:27.081Z,33.53
2018-02-08T09:58:54.665Z,33.33
2018-02-08T10:01:22.195Z,32.80
2018-02-08T10:03:50.478Z,33.97
2018-02-08T10:06:18.782Z,31.83
2018-02-08T10:08:46.354Z,33.23
2018-02-08T10:11:13.896Z,32.13
2018-02-08T10:13:41.469Z,32.30
2018-02-08T10:16:09.010Z,32.50
2018-02-08T10:18:36.540Z,37.20
2018-02-08T10:21:04.073Z,32.63
2018-02-08T10:23:31.606Z,34.20
2018-02-08T10:25:59.149Z,33.40
2018-02-08T10:28:26.665Z,32.40
2018-02-08T10:30:54.289Z,36.40
2018-02-08T10:33:21.810Z,36.30
2018-02-08T10:35:50.122Z,32.20
2018-02-08T10:38:17.645Z,31.40
2018-02-08T10:40:45.269Z,33.67
2018-02-08T10:43:12.785Z,30.17
2018-02-08T10:45:41.085Z,33.80
2018-02-08T10:48:08.605Z,33.03
2018-02-08T10:50:36.914Z,36.63
2018-02-08T10:53:04.441Z,32.47
2018-02-08T10:55:31.996Z,75.23
2018-02-08T10:57:59.509Z,36.07
2018-02-08T11:00:27.081Z,38.97
2018-02-08T11:02:54.609Z,32.80
2018-02-08T11:05:22.898Z,33.57
2018-02-08T11:07:51.201Z,32.40
2018-02-08T11:10:18.722Z,31.30
2018-02-08T11:12:47.034Z,29.03
2018-02-08T11:15:14.548Z,32.33
2018-02-08T11:17:42.080Z,32.50
2018-02-08T11:20:09.605Z,31.10
2018-02-08T11:22:37.140Z,35.37
2018-02-08T11:25:05.426Z,33.03
2018-02-08T11:27:33.724Z,32.97
2018-02-08T11:30:01.303Z,35.00
2018-02-08T11:32:28.839Z,33.67
2018-02-08T11:34:57.117Z,31.70
2018-02-08T11:37:25.518Z,34.37
2018-02-08T11:39:53.048Z,32.37
2018-02-08T11:42:21.364Z,33.13
2018-02-08T11:44:48.900Z,32.03
2018-02-08T11:47:17.181Z,34.20
2018-02-08T11:49:45.487Z,34.40
2018-02-08T11:52:13.014Z,32.33
2018-02-08T11:54:41.316Z,32.07
2018-02-08T11:57:08.833Z,33.47
2018-02-08T11:59:36.370Z,30.90
2018-02-08T12:02:03.890Z,30.80
2018-02-08T12:04:31.472Z,31.83
2018-02-08T12:06:59.033Z,31.20
2018-02-08T12:09:26.769Z,29.80
2018-02-08T12:11:55.054Z,30.13
2018-02-08T12:14:22.641Z,32.33
2018-02-08T12:16:50.197Z,29.00
2018-02-08T12:19:17.770Z,28.97
2018-02-08T12:21:45.289Z,26.23
2018-02-08T12:24:13.585Z,29.80
2018-02-08T12:26:41.875Z,33.83
2018-02-08T12:29:09.443Z,32.80
2018-02-08T12:31:36.966Z,33.20
2018-02-08T12:34:05.277Z,35.93
2018-02-08T12:36:32.805Z,34.50
2018-02-08T12:39:01.956Z,34.10
2018-02-08T12:41:29.509Z,33.20
2018-02-08T12:43:57.029Z,30.90
2018-02-08T12:46:25.333Z,32.03
2018-02-08T12:48:52.913Z,34.87
2018-02-08T12:51:20.445Z,36.77
2018-02-08T12:53:47.973Z,36.03
2018-02-08T12:56:15.514Z,37.30
2018-02-08T12:58:43.033Z,31.93
2018-02-08T13:01:10.578Z,34.43
2018-02-08T13:03:38.860Z,35.47
2018-02-08T13:06:07.161Z,33.20
2018-02-08T13:08:34.735Z,36.73
2018-02-08T13:11:02.294Z,35.93
2018-02-08T13:13:29.819Z,34.27
2018-02-08T13:15:58.126Z,33.70
2018-02-08T13:18:25.653Z,35.20
2018-02-08T13:20:53.971Z,33.88
2018-02-08T13:23:21.533Z,34.97
2018-02-08T13:25:49.086Z,35.00
2018-02-08T13:28:16.605Z,33.60
2018-02-08T13:30:44.142Z,33.20
2018-02-08T13:33:11.782Z,32.65
2018-02-08T13:35:39.325Z,32.70
2018-02-08T13:38:07.318Z,35.80
2018-02-08T13:40:40.476Z,36.50
2018-02-08T13:43:08.012Z,34.70
2018-02-08T13:45:35.544Z,34.50
2018-02-08T13:51:05.509Z,34.17
2018-02-08T13:53:38.663Z,37.67
2018-02-08T13:56:21.915Z,34.83
2018-02-08T14:01:48.780Z,33.97
2018-02-08T14:04:16.305Z,37.20
2018-02-08T14:06:43.841Z,37.05
2018-02-08T14:09:12.160Z,33.10
2018-02-08T14:11:39.697Z,34.58
2018-02-08T14:14:07.991Z,38.20
2018-02-08T14:16:35.533Z,39.28
2018-02-08T14:19:03.832Z,37.90
2018-02-08T14:21:31.413Z,40.15
2018-02-08T14:23:58.936Z,38.00
2018-02-08T14:26:27.237Z,40.58
2018-02-08T14:28:54.777Z,37.05
2018-02-08T14:31:23.065Z,35.95
2018-02-08T14:33:50.616Z,40.50
2018-02-08T14:36:18.909Z,38.88
2018-02-08T14:38:46.493Z,41.75
2018-02-08T14:41:14.021Z,40.35
2018-02-08T14:43:42.336Z,39.78
2018-02-08T14:46:09.860Z,36.92
2018-02-08T14:48:38.166Z,37.63
2018-02-08T14:51:05.686Z,37.90
2018-02-08T14:53:33.998Z,39.80
2018-02-08T14:56:01.523Z,36.95
2018-02-08T14:58:29.066Z,37.33
2018-02-08T15:00:56.590Z,37.08
2018-02-08T15:03:24.156Z,36.45
2018-02-08T15:05:51.669Z,34.45
2018-02-08T15:08:19.244Z,33.97
2018-02-08T15:10:47.525Z,37.72
2018-02-08T15:13:15.808Z,35.92
2018-02-08T15:15:44.110Z,36.35
2018-02-08T15:18:11.633Z,34.92
2018-02-08T15:20:40.129Z,35.05
2018-02-08T15:23:08.417Z,34.85
2018-02-08T15:25:36.000Z,34.40
2018-02-08T15:28:03.558Z,31.48
2018-02-08T15:30:36.765Z,35.80
2018-02-08T15:33:04.288Z,34.05
2018-02-08T15:35:31.826Z,28.70
2018-02-08T15:38:00.116Z,32.92
2018-02-08T15:40:28.423Z,37.60
2018-02-08T15:42:55.933Z,34.20
2018-02-08T15:45:23.550Z,32.22
2018-02-08T15:47:51.112Z,27.98
2018-02-08T15:50:18.649Z,24.17
2018-02-08T15:52:46.232Z,22.95
2018-02-08T15:55:13.792Z,23.02
2018-02-08T15:57:41.312Z,24.90
2018-02-08T16:00:09.636Z,20.52
2018-02-08T16:02:37.198Z,21.77
2018-02-08T16:05:04.718Z,23.20
2018-02-08T16:07:33.029Z,23.12
2018-02-08T16:10:00.548Z,20.80
2018-02-08T16:12:28.093Z,21.35
2018-02-08T16:14:55.619Z,20.65
2018-02-08T16:17:23.161Z,31.70
2018-02-08T16:19:50.745Z,27.90
2018-02-08T16:22:18.281Z,28.23
2018-02-08T16:24:45.851Z,29.40
2018-02-08T16:27:14.133Z,29.60
2018-02-08T16:29:41.653Z,34.03
2018-02-08T16:32:09.966Z,30.20
2018-02-08T16:34:37.482Z,25.85
2018-02-08T16:37:05.022Z,23.30
2018-02-08T16:39:33.374Z,26.20
2018-02-08T16:42:00.920Z,23.65
2018-02-08T16:44:28.446Z,29.85
2018-02-08T16:46:55.989Z,30.48
2018-02-08T16:49:23.509Z,25.45
2018-02-08T16:51:51.081Z,25.08
2018-02-08T16:54:18.608Z,24.80
2018-02-08T16:56:47.087Z,27.60
2018-02-08T16:59:14.594Z,30.02
2018-02-08T17:01:42.897Z,26.17
2018-02-08T17:04:10.421Z,25.73
2018-02-08T17:06:39.504Z,28.23
2018-02-08T17:09:07.278Z,26.77
2018-02-08T17:11:34.798Z,23.67
2018-02-08T17:14:02.341Z,24.27
2018-02-08T17:16:29.907Z,23.87
2018-02-08T17:18:57.425Z,22.33
2018-02-08T17:21:24.993Z,24.45
2018-02-08T17:23:52.529Z,26.40
2018-02-08T17:26:20.817Z,24.25
2018-02-08T17:28:48.352Z,29.12
2018-02-08T17:31:16.638Z,28.02
2018-02-08T17:33:45.054Z,25.42
2018-02-08T17:36:12.577Z,23.45
2018-02-08T17:38:40.879Z,32.63
2018-02-08T17:41:08.406Z,29.90
2018-02-08T17:43:35.947Z,34.92
2018-02-08T17:46:03.469Z,32.53
2018-02-08T17:48:31.015Z,34.03
2018-02-08T17:50:58.532Z,32.85
2018-02-08T17:53:26.091Z,27.92
2018-02-08T17:55:53.617Z,30.88
2018-02-08T17:58:21.133Z,27.80
2018-02-08T18:00:48.664Z,24.63
2018-02-08T18:03:16.186Z,24.35
2018-02-08T18:05:43.732Z,25.45
2018-02-08T18:08:12.022Z,24.60
2018-02-08T18:10:39.565Z,32.15
2018-02-08T18:13:07.877Z,34.22
2018-02-08T18:15:35.418Z,34.15
2018-02-08T18:18:02.968Z,30.77
2018-02-08T18:20:31.272Z,28.98
2018-02-08T18:22:58.841Z,31.40
2018-02-08T18:25:26.373Z,25.40
2018-02-08T18:27:54.661Z,30.05
2018-02-08T18:30:22.209Z,27.00
2018-02-08T18:32:50.493Z,27.27
2018-02-08T18:35:18.029Z,26.27
2018-02-08T18:37:46.316Z,30.70
2018-02-08T18:40:14.627Z,31.90
2018-02-08T18:42:42.172Z,33.15
2018-02-08T18:45:10.474Z,28.35
2018-02-08T18:47:37.989Z,35.83
2018-02-08T18:50:05.602Z,31.00
2018-02-08T18:52:33.152Z,32.67
2018-02-08T18:55:00.686Z,29.33
2018-02-08T18:57:28.995Z,26.60
2018-02-08T18:59:56.527Z,27.40
2018-02-08T19:02:24.841Z,25.05
2018-02-08T19:04:52.409Z,27.00
2018-02-08T19:07:19.941Z,30.37
2018-02-08T19:09:48.220Z,31.52
2018-02-08T19:12:16.526Z,27.30
2018-02-08T19:14:44.106Z,30.10
2018-02-08T19:17:11.648Z,30.88
2018-02-08T19:19:39.171Z,29.15
2018-02-08T19:22:06.709Z,28.60
2018-02-08T19:24:34.231Z,27.15
2018-02-08T19:27:01.773Z,32.53
2018-02-08T19:29:30.094Z,29.95
2018-02-08T19:31:57.676Z,28.80
2018-02-08T19:34:25.181Z,26.75
2018-02-08T19:36:52.725Z,29.63
2018-02-08T19:39:21.026Z,28.98
2018-02-08T19:41:48.561Z,26.25
2018-02-08T19:44:16.082Z,27.92
2018-02-08T19:46:43.635Z,26.23
2018-02-08T19:49:11.158Z,27.95
2018-02-08T19:51:39.472Z,24.50
2018-02-08T19:54:06.994Z,25.73
2018-02-08T19:56:35.298Z,34.08
2018-02-08T19:59:02.869Z,29.35
2018-02-08T20:01:30.411Z,25.98
2018-02-08T20:03:57.934Z,28.30
2018-02-08T20:06:25.476Z,32.53
2018-02-08T20:08:53.017Z,26.30
2018-02-08T20:11:20.557Z,28.85
2018-02-08T20:13:48.077Z,31.25
2018-02-08T20:16:15.615Z,28.12
2018-02-08T20:18:43.167Z,26.35
2018-02-08T20:21:10.731Z,26.62
2018-02-08T20:23:38.249Z,25.00
2018-02-08T20:26:06.553Z,26.35
2018-02-08T20:28:34.080Z,25.15
2018-02-08T20:33:57.633Z,24.83
2018-02-08T20:36:25.187Z,29.25
2018-02-08T20:38:52.715Z,28.08
2018-02-08T20:41:21.018Z,24.60
2018-02-08T20:43:48.536Z,34.38
2018-02-08T20:46:16.073Z,34.55
2018-02-08T20:48:43.594Z,34.05
2018-02-08T20:51:11.143Z,31.73
2018-02-08T20:53:39.453Z,32.63
2018-02-08T20:56:06.969Z,25.55
2018-02-08T20:58:34.578Z,26.12
2018-02-08T21:01:02.102Z,26.67
2018-02-08T21:03:30.405Z,25.83
2018-02-08T21:05:57.921Z,30.33
2018-02-08T21:08:25.457Z,26.10
2018-02-08T21:10:52.977Z,28.15
2018-02-08T21:13:21.283Z,32.35
2018-02-08T21:15:48.807Z,40.35
2018-02-08T21:18:17.112Z,37.40
2018-02-08T21:20:44.638Z,38.53
2018-02-08T21:23:12.180Z,34.85
2018-02-08T21:25:39.706Z,35.05
2018-02-08T21:28:07.852Z,30.52
2018-02-08T21:30:36.138Z,30.30
2018-02-08T21:33:03.722Z,29.15
2018-02-08T21:35:31.237Z,29.27
2018-02-08T21:37:59.549Z,34.03
2018-02-08T21:40:27.072Z,33.13
2018-02-08T21:42:55.381Z,32.38
2018-02-08T21:45:22.902Z,34.72
2018-02-08T21:47:50.521Z,28.55
2018-02-08T21:50:18.046Z,28.67
2018-02-08T21:52:45.636Z,29.37
2018-02-08T21:55:13.153Z,33.17
2018-02-08T21:57:41.488Z,24.48
2018-02-08T22:00:09.011Z,25.88
2018-02-08T22:02:37.318Z,27.05
2018-02-08T22:05:04.841Z,26.58
2018-02-08T22:07:33.143Z,31.95
2018-02-08T22:10:00.660Z,30.60
2018-02-08T22:12:28.200Z,32.40
2018-02-08T22:14:55.717Z,32.25
2018-02-08T22:17:23.258Z,28.55
2018-02-08T22:19:51.547Z,28.17
2018-02-08T22:22:19.848Z,30.08
2018-02-08T22:24:47.365Z,33.13
2018-02-08T22:27:14.907Z,31.92
2018-02-08T22:29:42.433Z,37.70
2018-02-08T22:32:09.972Z,36.08
2018-02-08T22:34:37.514Z,36.28
2018-02-08T22:37:05.802Z,36.65
2018-02-08T22:39:34.106Z,35.47
2018-02-08T22:42:01.622Z,32.92
2018-02-08T22:44:29.238Z,33.08
2018-02-08T22:46:56.761Z,35.55
2018-02-08T22:49:25.061Z,29.10
2018-02-08T22:51:52.592Z,30.62
2018-02-08T22:54:20.908Z,30.52
2018-02-08T22:56:48.426Z,28.90
2018-02-08T22:59:16.733Z,29.05
2018-02-08T23:01:44.257Z,32.50
2018-02-08T23:04:11.801Z,30.95
2018-02-08T23:06:39.321Z,27.52
2018-02-08T23:09:06.871Z,31.00
2018-02-08T23:11:34.399Z,32.58
2018-02-08T23:14:01.938Z,27.05
2018-02-08T23:16:29.457Z,27.35
2018-02-08T23:18:56.998Z,27.10
2018-02-08T23:21:25.284Z,27.87
2018-02-08T23:23:53.596Z,29.55
2018-02-08T23:26:21.123Z,32.70
2018-02-08T23:28:49.538Z,34.13
2018-02-08T23:31:17.058Z,31.10
2018-02-08T23:33:45.366Z,30.65
2018-02-08T23:36:12.885Z,33.28
2018-02-08T23:38:40.425Z,32.97
2018-02-08T23:41:07.957Z,29.02
2018-02-08T23:43:35.538Z,32.45
2018-02-08T23:46:03.058Z,32.50
2018-02-08T23:48:30.582Z,36.22
2018-02-08T23:50:58.126Z,37.28
2018-02-08T23:53:25.653Z,33.97
2018-02-08T23:55:53.222Z,34.05
2018-02-08T23:58:20.746Z,31.05
